createdAt,value
2022-12-23T00:01:34.135Z,88.80
2022-12-23T00:04:01.158Z,88.80
2022-12-23T00:06:28.407Z,88.80
2022-12-23T00:08:58.631Z,88.80
2022-12-23T00:11:27.339Z,88.80
2022-12-23T00:14:19.956Z,88.80
2022-12-23T00:16:49.350Z,88.70
2022-12-23T00:19:16.347Z,88.70
2022-12-23T00:21:43.333Z,88.70
2022-12-23T00:24:12.158Z,88.70
2022-12-23T00:26:39.208Z,88.70
2022-12-23T00:29:06.177Z,88.70
2022-12-23T00:31:33.216Z,88.70
2022-12-23T00:34:00.203Z,88.70
2022-12-23T00:36:29.716Z,88.70
2022-12-23T00:39:21.364Z,88.70
2022-12-23T00:42:07.156Z,88.70
2022-12-23T00:44:34.167Z,88.70
2022-12-23T00:47:01.097Z,88.70
2022-12-23T00:49:43.112Z,88.70
2022-12-23T00:52:13.216Z,88.70
2022-12-23T00:54:40.733Z,88.60
2022-12-23T00:57:07.740Z,88.60
2022-12-23T00:59:34.769Z,88.60
2022-12-23T01:02:20.870Z,88.60
2022-12-23T01:05:06.510Z,88.60
2022-12-23T01:07:33.628Z,88.60
2022-12-23T01:10:00.531Z,88.60
2022-12-23T01:12:27.845Z,88.50
2022-12-23T01:14:54.831Z,88.50
2022-12-23T01:17:21.869Z,88.50
2022-12-23T01:19:48.943Z,88.50
2022-12-23T01:22:16.029Z,88.50
2022-12-23T01:24:42.941Z,88.50
2022-12-23T01:27:09.900Z,88.50
2022-12-23T01:29:36.858Z,88.50
2022-12-23T01:32:04.058Z,88.40
2022-12-23T01:34:36.449Z,88.40
2022-12-23T01:37:05.145Z,88.40
2022-12-23T01:39:32.117Z,88.40
2022-12-23T01:42:17.925Z,88.40
2022-12-23T01:44:50.669Z,88.40
2022-12-23T01:47:34.003Z,88.40
2022-12-23T01:50:15.290Z,88.30
2022-12-23T01:52:47.705Z,88.40
2022-12-23T01:55:19.051Z,88.30
2022-12-23T01:57:47.934Z,88.30
2022-12-23T02:00:34.572Z,88.30
2022-12-23T02:03:20.070Z,88.30
2022-12-23T02:05:48.104Z,88.30
2022-12-23T02:08:35.116Z,88.30
2022-12-23T02:11:36.957Z,88.30
2022-12-23T02:14:42.937Z,88.30
2022-12-23T02:17:25.093Z,88.20
2022-12-23T02:20:18.999Z,88.30
2022-12-23T02:22:45.935Z,88.20
2022-12-23T02:25:24.692Z,88.20
2022-12-23T02:28:15.746Z,88.20
2022-12-23T02:31:10.672Z,88.20
2022-12-23T02:34:11.199Z,88.20
2022-12-23T02:36:54.676Z,88.20
2022-12-23T02:39:53.832Z,88.20
2022-12-23T02:42:36.006Z,88.20
2022-12-23T02:45:22.429Z,88.20
2022-12-23T02:47:57.863Z,88.20
2022-12-23T02:50:29.929Z,88.20
2022-12-23T02:53:01.552Z,88.20
2022-12-23T02:55:33.400Z,88.20
2022-12-23T02:58:05.182Z,88.20
2022-12-23T03:00:33.504Z,88.20
2022-12-23T03:03:00.907Z,88.10
2022-12-23T03:05:39.153Z,88.20
2022-12-23T03:08:12.319Z,88.20
2022-12-23T03:11:01.858Z,88.10
2022-12-23T03:13:46.592Z,88.10
2022-12-23T03:16:31.357Z,88.20
2022-12-23T03:19:19.143Z,88.10
2022-12-23T03:21:54.973Z,88.10
2022-12-23T03:24:37.604Z,88.10
2022-12-23T03:27:08.918Z,88.20
2022-12-23T03:29:45.597Z,88.10
2022-12-23T03:32:14.874Z,88.10
2022-12-23T03:34:47.018Z,88.20
2022-12-23T03:37:16.488Z,88.20
2022-12-23T03:40:10.445Z,88.20
2022-12-23T03:42:40.636Z,88.20
2022-12-23T03:45:41.701Z,88.20
2022-12-23T03:48:35.772Z,88.30
2022-12-23T03:51:15.626Z,88.30
2022-12-23T03:53:51.710Z,88.30
2022-12-23T03:56:32.028Z,88.30
2022-12-23T03:59:03.415Z,88.30
2022-12-23T04:01:45.965Z,88.30
2022-12-23T04:04:26.170Z,88.30
2022-12-23T04:07:01.084Z,88.40
2022-12-23T04:09:29.232Z,88.40
2022-12-23T04:11:58.255Z,88.40
2022-12-23T04:14:25.254Z,88.40
2022-12-23T04:16:56.134Z,88.40
2022-12-23T04:19:23.272Z,88.40
2022-12-23T04:21:50.427Z,88.40
2022-12-23T04:24:17.453Z,88.40
2022-12-23T04:26:44.394Z,88.40
2022-12-23T04:29:11.445Z,88.40
2022-12-23T04:31:38.489Z,88.40
2022-12-23T04:34:05.594Z,88.40
2022-12-23T04:36:32.749Z,88.40
2022-12-23T04:38:59.780Z,88.30
2022-12-23T04:41:26.699Z,88.30
2022-12-23T04:43:53.719Z,88.30
2022-12-23T04:46:21.033Z,88.30
2022-12-23T04:48:48.104Z,88.30
2022-12-23T04:51:15.019Z,88.40
2022-12-23T04:53:42.070Z,88.30
2022-12-23T04:56:09.036Z,88.40
2022-12-23T04:58:36.084Z,88.30
2022-12-23T05:01:05.763Z,88.30
2022-12-23T05:03:33.389Z,88.30
2022-12-23T05:06:00.905Z,88.30
2022-12-23T05:08:28.609Z,88.30
2022-12-23T05:10:55.866Z,88.30
2022-12-23T05:13:23.260Z,88.30
2022-12-23T05:15:51.477Z,88.30
2022-12-23T05:18:18.627Z,88.20
2022-12-23T05:20:45.919Z,88.20
2022-12-23T05:23:13.029Z,88.20
2022-12-23T05:25:40.535Z,88.30
2022-12-23T05:28:10.850Z,88.20
2022-12-23T05:30:37.900Z,88.20
2022-12-23T05:33:04.959Z,88.20
2022-12-23T05:35:32.065Z,88.20
2022-12-23T05:37:59.022Z,88.20
2022-12-23T05:40:28.490Z,88.20
2022-12-23T05:42:58.023Z,88.20
2022-12-23T05:45:25.228Z,88.20
2022-12-23T05:47:52.226Z,88.20
2022-12-23T05:50:19.181Z,88.30
2022-12-23T05:52:48.935Z,88.20
2022-12-23T05:55:16.155Z,88.30
2022-12-23T05:57:43.133Z,88.30
2022-12-23T06:00:10.784Z,88.30
2022-12-23T06:02:40.878Z,88.30
2022-12-23T06:05:08.641Z,88.30
2022-12-23T06:07:35.667Z,88.30
2022-12-23T06:10:03.080Z,88.30
2022-12-23T06:12:30.048Z,88.30
2022-12-23T06:14:57.095Z,88.30
2022-12-23T06:17:24.162Z,88.40
2022-12-23T06:19:51.273Z,88.40
2022-12-23T06:22:18.445Z,88.40
2022-12-23T06:24:45.388Z,88.40
2022-12-23T06:27:12.497Z,88.40
2022-12-23T06:29:39.485Z,88.40
2022-12-23T06:32:06.540Z,88.40
2022-12-23T06:34:33.616Z,88.50
2022-12-23T06:37:00.842Z,88.40
2022-12-23T06:39:28.031Z,88.50
2022-12-23T06:41:55.035Z,88.50
2022-12-23T06:44:22.105Z,88.50
2022-12-23T06:46:49.137Z,88.50
2022-12-23T06:49:16.185Z,88.50
2022-12-23T06:51:43.233Z,88.50
2022-12-23T06:54:14.560Z,88.50
2022-12-23T06:56:41.648Z,88.60
2022-12-23T06:59:08.705Z,88.60
2022-12-23T07:01:35.848Z,88.60
2022-12-23T07:04:03.251Z,88.60
2022-12-23T07:06:30.321Z,88.60
2022-12-23T07:08:57.283Z,88.60
2022-12-23T07:11:24.286Z,88.70
2022-12-23T07:13:51.247Z,88.70
2022-12-23T07:16:18.344Z,88.70
2022-12-23T07:18:45.308Z,88.70
2022-12-23T07:21:20.017Z,88.70
2022-12-23T07:23:51.781Z,88.70
2022-12-23T07:26:18.774Z,88.70
2022-12-23T07:28:48.246Z,88.80
2022-12-23T07:31:15.612Z,88.80
2022-12-23T07:33:42.892Z,88.80
2022-12-23T07:36:10.041Z,88.80
2022-12-23T07:38:37.115Z,88.80
2022-12-23T07:41:04.287Z,88.80
2022-12-23T07:43:31.353Z,88.90
2022-12-23T07:46:00.576Z,88.90
2022-12-23T07:48:28.333Z,88.90
2022-12-23T07:51:01.785Z,89.00
2022-12-23T07:53:29.191Z,89.00
2022-12-23T07:55:57.070Z,89.00
2022-12-23T07:58:24.712Z,89.10
2022-12-23T08:00:58.751Z,89.10
2022-12-23T08:03:25.889Z,89.10
2022-12-23T08:06:00.664Z,89.20
2022-12-23T08:08:27.677Z,89.20
2022-12-23T08:10:59.757Z,89.20
2022-12-23T08:13:26.944Z,89.30
2022-12-23T08:15:58.257Z,89.30
2022-12-23T08:18:25.960Z,89.30
2022-12-23T08:21:06.558Z,89.40
2022-12-23T08:23:34.192Z,89.40
2022-12-23T08:26:05.716Z,89.40
2022-12-23T08:28:34.149Z,89.40
2022-12-23T08:31:10.416Z,89.50
2022-12-23T08:33:39.118Z,89.50
2022-12-23T08:36:07.833Z,89.50
2022-12-23T08:38:35.650Z,89.50
2022-12-23T08:41:02.744Z,89.50
2022-12-23T08:43:35.507Z,89.60
2022-12-23T08:46:03.527Z,89.70
2022-12-23T08:48:31.169Z,89.70
2022-12-23T08:51:02.220Z,89.80
2022-12-23T08:53:29.298Z,89.80
2022-12-23T08:55:56.281Z,89.90
2022-12-23T08:58:23.284Z,89.80
2022-12-23T09:00:51.148Z,89.90
2022-12-23T09:03:18.237Z,89.90
2022-12-23T09:05:45.290Z,89.90
2022-12-23T09:08:12.271Z,89.90
2022-12-23T09:10:45.241Z,89.90
2022-12-23T09:13:16.661Z,89.90
2022-12-23T09:15:49.686Z,89.90
2022-12-23T09:18:16.661Z,89.90
2022-12-23T09:20:43.854Z,89.90
2022-12-23T09:23:11.308Z,89.90
2022-12-23T09:25:38.309Z,90.00
2022-12-23T09:28:06.880Z,90.00
2022-12-23T09:30:33.951Z,90.00
2022-12-23T09:33:00.896Z,90.10
2022-12-23T09:35:27.901Z,90.10
2022-12-23T09:37:54.894Z,90.10
2022-12-23T09:40:22.515Z,90.20
2022-12-23T09:43:26.728Z,90.30
2022-12-23T09:46:06.298Z,90.30
2022-12-23T09:48:40.819Z,90.30
2022-12-23T09:51:10.681Z,90.40
2022-12-23T09:54:16.926Z,90.40
2022-12-23T09:56:51.903Z,90.40
2022-12-23T09:59:39.194Z,90.40
2022-12-23T10:02:30.327Z,90.40
2022-12-23T10:05:27.740Z,90.40
2022-12-23T10:08:04.416Z,90.40
2022-12-23T10:10:37.604Z,90.40
2022-12-23T10:13:07.112Z,90.40
2022-12-23T10:15:48.067Z,90.40
2022-12-23T10:18:39.100Z,90.40
2022-12-23T10:21:26.335Z,90.40
2022-12-23T10:23:54.949Z,90.40
2022-12-23T10:26:55.198Z,90.40
2022-12-23T10:29:31.418Z,90.40
2022-12-23T10:32:19.247Z,90.40
2022-12-23T10:35:03.644Z,90.40
2022-12-23T10:37:45.561Z,90.40
2022-12-23T10:40:39.854Z,90.40
2022-12-23T10:43:30.612Z,90.40
2022-12-23T10:45:57.656Z,90.30
2022-12-23T10:48:27.111Z,90.30
2022-12-23T10:51:12.208Z,90.30
2022-12-23T10:54:02.414Z,90.30
2022-12-23T10:56:30.759Z,90.30
2022-12-23T10:59:00.727Z,90.20
2022-12-23T11:01:30.704Z,90.20
2022-12-23T11:04:02.520Z,90.20
2022-12-23T11:06:36.808Z,90.10
2022-12-23T11:09:06.148Z,90.10
2022-12-23T11:11:56.508Z,90.10
2022-12-23T11:14:50.556Z,90.10
2022-12-23T11:17:32.085Z,90.10
2022-12-23T11:20:13.021Z,90.10
2022-12-23T11:22:52.157Z,90.10
2022-12-23T11:25:26.881Z,90.00
2022-12-23T11:27:59.791Z,90.00
2022-12-23T11:30:28.123Z,90.00
2022-12-23T11:32:55.662Z,90.00
2022-12-23T11:35:29.246Z,90.00
2022-12-23T11:37:58.626Z,89.90
2022-12-23T11:40:34.243Z,89.90
2022-12-23T11:43:11.790Z,89.90
2022-12-23T11:45:38.977Z,89.80
2022-12-23T11:48:07.267Z,89.70
2022-12-23T11:50:41.773Z,89.60
2022-12-23T11:53:22.488Z,89.50
2022-12-23T11:56:06.857Z,89.40
2022-12-23T11:58:46.051Z,89.40
2022-12-23T12:01:20.409Z,89.30
2022-12-23T12:03:55.602Z,89.30
2022-12-23T12:06:23.413Z,89.30
2022-12-23T12:08:53.809Z,89.30
2022-12-23T12:11:46.237Z,89.30
2022-12-23T12:14:46.907Z,89.30
2022-12-23T12:17:26.609Z,89.30
2022-12-23T12:20:02.213Z,89.10
2022-12-23T12:22:40.196Z,89.10
2022-12-23T12:25:21.459Z,89.10
2022-12-23T12:27:57.952Z,89.10
2022-12-23T12:30:31.608Z,89.10
2022-12-23T12:33:11.859Z,89.00
2022-12-23T12:36:05.451Z,89.00
2022-12-23T12:38:36.207Z,88.90
2022-12-23T12:41:29.452Z,88.80
2022-12-23T12:43:56.409Z,88.60
2022-12-23T12:46:41.196Z,88.40
2022-12-23T12:49:31.585Z,88.20
2022-12-23T12:52:17.018Z,87.90
2022-12-23T12:54:57.800Z,87.50
2022-12-23T12:57:25.370Z,87.40
2022-12-23T13:00:03.587Z,87.30
2022-12-23T13:02:59.519Z,87.30
2022-12-23T13:05:38.812Z,87.30
2022-12-23T13:08:17.743Z,87.10
2022-12-23T13:10:53.442Z,87.00
2022-12-23T13:13:31.959Z,87.00
2022-12-23T13:16:26.337Z,86.90
2022-12-23T13:19:26.380Z,87.00
2022-12-23T13:22:23.887Z,86.90
2022-12-23T13:25:08.850Z,86.80
2022-12-23T13:27:46.403Z,86.70
2022-12-23T13:30:18.991Z,86.20
2022-12-23T13:33:09.031Z,85.80
2022-12-23T13:35:41.722Z,85.70
2022-12-23T13:38:41.709Z,85.30
2022-12-23T13:41:34.487Z,85.60
2022-12-23T13:44:02.918Z,85.60
2022-12-23T13:46:52.653Z,85.70
2022-12-23T13:49:46.205Z,85.50
2022-12-23T13:52:34.189Z,85.50
2022-12-23T13:55:11.562Z,85.50
2022-12-23T13:58:00.281Z,85.70
2022-12-23T14:00:32.835Z,85.70
2022-12-23T14:03:03.035Z,85.60
2022-12-23T14:05:39.074Z,85.60
2022-12-23T14:08:41.264Z,85.60
2022-12-23T14:11:15.277Z,85.60
2022-12-23T14:13:51.147Z,85.50
2022-12-23T14:16:21.355Z,85.40
2022-12-23T14:19:20.903Z,85.40
2022-12-23T14:21:53.830Z,85.20
2022-12-23T14:24:45.763Z,84.80
2022-12-23T14:27:55.830Z,84.70
2022-12-23T14:30:37.366Z,84.30
2022-12-23T14:33:27.687Z,83.90
2022-12-23T14:36:21.182Z,83.90
2022-12-23T14:39:12.997Z,83.90
2022-12-23T14:41:51.997Z,84.00
2022-12-23T14:44:21.889Z,83.90
2022-12-23T14:46:48.876Z,83.90
2022-12-23T14:49:39.544Z,83.80
2022-12-23T14:52:45.206Z,83.80
2022-12-23T14:55:32.866Z,83.90
2022-12-23T14:58:26.266Z,83.80
2022-12-23T15:01:02.245Z,83.70
2022-12-23T15:03:35.104Z,83.70
2022-12-23T15:06:07.339Z,83.70
2022-12-23T15:08:39.609Z,83.90
2022-12-23T15:11:13.894Z,83.90
2022-12-23T15:13:42.878Z,83.90
2022-12-23T15:16:18.523Z,84.00
2022-12-23T15:19:02.300Z,84.00
2022-12-23T15:21:32.635Z,84.10
2022-12-23T15:24:00.589Z,84.00
2022-12-23T15:26:31.363Z,84.00
2022-12-23T15:29:00.367Z,83.90
2022-12-23T15:31:35.144Z,83.70
2022-12-23T15:34:16.889Z,83.80
2022-12-23T15:36:45.803Z,83.90
2022-12-23T15:39:21.022Z,83.80
2022-12-23T15:41:48.982Z,83.80
2022-12-23T15:44:24.147Z,83.70
2022-12-23T15:46:51.759Z,83.40
2022-12-23T15:49:21.758Z,83.30
2022-12-23T15:52:12.364Z,83.20
2022-12-23T15:54:45.864Z,83.00
2022-12-23T15:57:19.231Z,83.00
2022-12-23T15:59:46.503Z,82.90
2022-12-23T16:05:35.197Z,82.90
2022-12-23T16:08:16.060Z,82.90
2022-12-23T16:10:55.768Z,82.90
2022-12-23T16:13:23.056Z,82.80
2022-12-23T16:15:50.085Z,82.80
2022-12-23T16:18:22.294Z,82.70
2022-12-23T16:21:04.265Z,82.50
2022-12-23T16:23:35.203Z,82.50
2022-12-23T16:26:03.875Z,82.40
2022-12-23T16:28:41.692Z,82.40
2022-12-23T16:31:10.630Z,82.40
2022-12-23T16:33:42.702Z,82.20
2022-12-23T16:36:26.374Z,82.40
2022-12-23T16:39:09.311Z,82.40
2022-12-23T16:41:36.580Z,82.40
2022-12-23T16:44:04.433Z,82.20
2022-12-23T16:46:38.664Z,82.20
2022-12-23T16:49:10.956Z,82.20
2022-12-23T16:51:39.729Z,82.10
2022-12-23T16:54:06.687Z,81.90
2022-12-23T16:56:36.410Z,81.80
2022-12-23T16:59:04.241Z,81.90
2022-12-23T17:01:34.932Z,81.80
2022-12-23T17:04:02.444Z,81.70
2022-12-23T17:06:30.264Z,81.50
2022-12-23T17:08:57.399Z,81.70
2022-12-23T17:11:49.170Z,81.80
2022-12-23T17:14:18.801Z,81.60
2022-12-23T17:16:46.647Z,81.50
2022-12-23T17:19:13.900Z,81.40
2022-12-23T17:21:43.234Z,81.50
2022-12-23T17:24:20.797Z,81.60
2022-12-23T17:26:47.931Z,81.50
2022-12-23T17:29:14.929Z,81.40
2022-12-23T17:31:43.268Z,81.50
2022-12-23T17:34:22.219Z,81.40
2022-12-23T17:36:50.416Z,81.40
2022-12-23T17:39:19.304Z,81.20
2022-12-23T17:41:46.783Z,81.30
2022-12-23T17:44:15.615Z,81.10
2022-12-23T17:46:43.009Z,81.30
2022-12-23T17:49:09.972Z,81.20
2022-12-23T17:51:39.723Z,81.20
2022-12-23T17:54:06.780Z,81.30
2022-12-23T17:56:34.075Z,81.40
2022-12-23T17:59:01.100Z,81.50
2022-12-23T18:01:31.628Z,81.70
2022-12-23T18:03:59.977Z,81.70
2022-12-23T18:06:28.864Z,81.70
2022-12-23T18:08:59.691Z,81.80
2022-12-23T18:11:46.698Z,81.80
2022-12-23T18:14:19.388Z,81.90
2022-12-23T18:16:46.614Z,81.80
2022-12-23T18:19:27.448Z,81.80
2022-12-23T18:21:56.697Z,81.90
2022-12-23T18:24:23.990Z,81.90
2022-12-23T18:26:51.085Z,82.00
2022-12-23T18:29:18.641Z,81.90
2022-12-23T18:31:51.513Z,82.00
2022-12-23T18:34:19.985Z,82.00
2022-12-23T18:36:48.430Z,82.00
2022-12-23T18:39:15.729Z,82.10
2022-12-23T18:41:42.639Z,82.00
2022-12-23T18:44:18.852Z,82.00
2022-12-23T18:46:46.075Z,82.10
2022-12-23T18:49:13.119Z,82.10
2022-12-23T18:51:40.150Z,82.30
2022-12-23T18:54:07.091Z,82.40
2022-12-23T18:56:34.082Z,82.50
2022-12-23T18:59:01.057Z,82.60
2022-12-23T19:01:28.107Z,82.60
2022-12-23T19:03:55.060Z,82.70
2022-12-23T19:06:22.108Z,82.70
2022-12-23T19:08:49.119Z,82.70
2022-12-23T19:11:18.854Z,82.70
2022-12-23T19:13:46.648Z,82.80
2022-12-23T19:16:18.593Z,82.80
2022-12-23T19:18:46.950Z,82.80
2022-12-23T19:21:14.754Z,82.80
2022-12-23T19:23:42.517Z,82.80
2022-12-23T19:26:15.969Z,82.80
2022-12-23T19:28:44.298Z,82.80
2022-12-23T19:31:13.655Z,82.80
2022-12-23T19:33:42.329Z,82.70
2022-12-23T19:36:14.878Z,82.70
2022-12-23T19:38:42.252Z,82.70
2022-12-23T19:41:10.095Z,82.70
2022-12-23T19:43:38.523Z,82.80
2022-12-23T19:46:08.451Z,82.80
2022-12-23T19:48:36.488Z,82.90
2022-12-23T19:51:06.348Z,82.90
2022-12-23T19:53:33.956Z,82.90
2022-12-23T19:56:07.529Z,82.80
2022-12-23T19:58:37.440Z,82.90
2022-12-23T20:01:13.667Z,82.90
2022-12-23T20:03:42.349Z,82.90
2022-12-23T20:06:19.586Z,82.80
2022-12-23T20:08:49.078Z,82.80
2022-12-23T20:11:18.819Z,82.80
2022-12-23T20:13:46.446Z,82.80
2022-12-23T20:16:13.797Z,82.80
2022-12-23T20:18:40.840Z,82.80
2022-12-23T20:21:07.865Z,82.80
2022-12-23T20:23:35.499Z,82.70
2022-12-23T20:26:03.128Z,82.80
2022-12-23T20:28:30.492Z,82.80
2022-12-23T20:31:19.104Z,82.70
2022-12-23T20:33:47.284Z,82.80
2022-12-23T20:36:16.752Z,82.70
2022-12-23T20:38:45.583Z,82.70
2022-12-23T20:41:18.122Z,82.80
2022-12-23T20:43:56.958Z,82.80
2022-12-23T20:46:30.317Z,82.80
2022-12-23T20:48:57.357Z,82.90
2022-12-23T20:51:25.385Z,82.90
2022-12-23T20:53:54.634Z,82.90
2022-12-23T20:56:27.364Z,82.90
2022-12-23T20:58:55.219Z,82.90
2022-12-23T21:01:28.621Z,82.90
2022-12-23T21:03:57.537Z,82.90
2022-12-23T21:06:25.807Z,82.90
2022-12-23T21:08:55.847Z,82.90
2022-12-23T21:11:23.938Z,82.90
2022-12-23T21:13:51.838Z,82.90
2022-12-23T21:16:19.289Z,83.00
2022-12-23T21:18:53.195Z,83.10
2022-12-23T21:21:23.690Z,83.10
2022-12-23T21:23:50.751Z,83.10
2022-12-23T21:26:20.507Z,83.20
2022-12-23T21:28:48.902Z,83.20
2022-12-23T21:31:18.939Z,83.30
2022-12-23T21:33:47.896Z,83.30
2022-12-23T21:36:20.196Z,83.30
2022-12-23T21:38:49.374Z,83.30
2022-12-23T21:41:19.840Z,83.40
2022-12-23T21:43:47.577Z,83.30
2022-12-23T21:46:17.736Z,83.40
2022-12-23T21:48:45.398Z,83.40
2022-12-23T21:51:16.362Z,83.40
2022-12-23T21:53:45.086Z,83.50
2022-12-23T21:56:14.920Z,83.50
2022-12-23T21:58:42.733Z,83.60
2022-12-23T22:01:12.591Z,83.70
2022-12-23T22:03:39.994Z,83.80
2022-12-23T22:06:21.848Z,83.80
2022-12-23T22:08:50.690Z,83.90
2022-12-23T22:11:24.936Z,84.00
2022-12-23T22:13:52.486Z,84.10
2022-12-23T22:16:22.041Z,84.10
2022-12-23T22:18:50.055Z,84.20
2022-12-23T22:21:22.798Z,84.30
2022-12-23T22:23:51.149Z,84.50
2022-12-23T22:26:25.289Z,84.60
2022-12-23T22:28:58.049Z,84.80
2022-12-23T22:31:53.359Z,84.90
2022-12-23T22:34:22.600Z,85.10
2022-12-23T22:36:50.653Z,85.10
2022-12-23T22:39:21.401Z,85.20
2022-12-23T22:41:50.948Z,85.20
2022-12-23T22:44:18.142Z,85.30
2022-12-23T22:46:45.437Z,85.30
2022-12-23T22:49:14.567Z,85.30
2022-12-23T22:51:42.420Z,85.30
2022-12-23T22:54:10.275Z,85.40
2022-12-23T22:56:37.540Z,85.40
2022-12-23T22:59:04.960Z,85.40
2022-12-23T23:01:36.042Z,85.40
2022-12-23T23:04:04.156Z,85.40
2022-12-23T23:06:34.293Z,85.40
2022-12-23T23:09:01.455Z,85.30
2022-12-23T23:11:28.857Z,85.30
2022-12-23T23:13:56.475Z,85.30
2022-12-23T23:16:24.669Z,85.20
2022-12-23T23:18:52.584Z,85.20
2022-12-23T23:21:20.260Z,85.20
2022-12-23T23:23:47.641Z,85.20
2022-12-23T23:26:14.869Z,85.20
2022-12-23T23:28:42.826Z,85.20
2022-12-23T23:31:40.482Z,85.20
2022-12-23T23:33:58.002Z,85.20
2022-12-23T23:36:25.426Z,85.20
2022-12-23T23:38:52.461Z,85.20
2022-12-23T23:41:23.426Z,85.20
2022-12-23T23:43:51.592Z,85.20
2022-12-23T23:46:19.260Z,85.20
2022-12-23T23:48:47.470Z,85.20
2022-12-23T23:51:14.425Z,85.20
2022-12-23T23:53:41.432Z,85.20
2022-12-23T23:56:09.169Z,85.20
2022-12-23T23:58:37.231Z,85.10
